Time;durP1;ratioP1;P1;durP2;ratioP2;P2;SDS_P1;SDS_P2;PMS_P1;PMS_P2;Temp;Humidity;BMP_temperature;BMP_pressure;BME280_temperature;BME280_humidity;BME280_pressure;Samples;Min_cycle;Max_cycle;Signal;HPM_P1;HPM_P2
2022/12/25 00:01:52;;;;;;;117.75;17.08;;;6.00;99.90;;;;;;5002437;28;20033;-71
2022/12/25 00:04:17;;;;;;;114.03;16.15;;;6.00;99.90;;;;;;4998827;28;20033;-72
2022/12/25 00:06:43;;;;;;;113.65;17.48;;;5.90;99.90;;;;;;4996664;28;20101;-72
2022/12/25 00:09:08;;;;;;;105.30;18.10;;;6.00;99.90;;;;;;5003712;28;20482;-72
2022/12/25 00:11:34;;;;;;;107.18;16.30;;;6.00;99.90;;;;;;5013244;28;20030;-72
2022/12/25 00:13:59;;;;;;;111.03;18.42;;;6.00;99.90;;;;;;5013517;28;20017;-72
2022/12/25 00:16:25;;;;;;;125.43;18.80;;;6.00;99.90;;;;;;5013621;28;20057;-72
2022/12/25 00:18:52;;;;;;;92.53;20.33;;;6.00;99.90;;;;;;5013222;28;20131;-72
2022/12/25 00:21:19;;;;;;;115.78;19.77;;;6.00;99.90;;;;;;5011824;28;20022;-72
2022/12/25 00:23:44;;;;;;;87.70;17.13;;;6.00;99.90;;;;;;5013503;28;20018;-72
2022/12/25 00:26:13;;;;;;;106.70;16.77;;;6.00;99.90;;;;;;5013391;28;20033;-72
2022/12/25 00:28:38;;;;;;;125.43;20.27;;;6.00;99.90;;;;;;5013360;28;20030;-72
2022/12/25 00:31:09;;;;;;;121.68;19.42;;;6.00;99.90;;;;;;5013348;28;20045;-72
2022/12/25 00:33:40;;;;;;;101.10;20.27;;;6.10;99.90;;;;;;5013136;28;20064;-72
2022/12/25 00:36:07;;;;;;;94.40;19.45;;;6.00;99.90;;;;;;5013274;28;20022;-72
2022/12/25 00:38:34;;;;;;;87.75;16.67;;;6.10;99.90;;;;;;5013103;28;20497;-72
2022/12/25 00:41:13;;;;;;;111.88;20.02;;;6.10;99.90;;;;;;5013308;28;20033;-72
2022/12/25 00:43:41;;;;;;;111.30;18.83;;;6.10;99.90;;;;;;5013258;28;20026;-72
2022/12/25 00:46:07;;;;;;;108.00;19.80;;;6.10;99.90;;;;;;5013273;28;20507;-72
2022/12/25 00:48:34;;;;;;;85.78;18.27;;;6.10;99.90;;;;;;5013246;28;20036;-72
2022/12/25 00:51:02;;;;;;;88.90;18.65;;;6.20;99.90;;;;;;5013663;28;20022;-72
2022/12/25 00:53:28;;;;;;;102.68;17.77;;;6.20;99.90;;;;;;5013156;28;20014;-72
2022/12/25 00:55:59;;;;;;;113.50;19.20;;;6.20;99.90;;;;;;5013357;28;20037;-72
2022/12/25 00:58:27;;;;;;;118.38;19.15;;;6.20;99.90;;;;;;5013575;28;20030;-71
2022/12/25 01:00:53;;;;;;;81.22;15.95;;;6.20;99.90;;;;;;5013362;28;20489;-72
2022/12/25 01:03:19;;;;;;;91.00;16.92;;;6.20;99.90;;;;;;5011832;28;20026;-72
2022/12/25 01:06:03;;;;;;;100.60;16.33;;;6.20;99.90;;;;;;5013122;28;20052;-71
2022/12/25 01:08:31;;;;;;;93.75;15.50;;;6.20;99.90;;;;;;5013342;28;20559;-72
2022/12/25 01:11:03;;;;;;;57.67;14.00;;;6.10;99.90;;;;;;5013492;28;20533;-71
2022/12/25 01:13:29;;;;;;;79.13;14.65;;;6.10;99.90;;;;;;5013099;28;20030;-72
2022/12/25 01:15:55;;;;;;;97.65;15.20;;;6.10;99.90;;;;;;5013137;28;20038;-71
2022/12/25 01:18:22;;;;;;;98.45;16.02;;;6.20;99.90;;;;;;5013151;28;20037;-72
2022/12/25 01:20:48;;;;;;;87.82;16.15;;;6.20;99.90;;;;;;5012907;28;20041;-72
2022/12/25 01:23:14;;;;;;;77.45;16.05;;;6.20;99.90;;;;;;5013097;28;20029;-71
2022/12/25 01:25:39;;;;;;;86.53;16.20;;;6.10;99.90;;;;;;5012855;28;20111;-72
2022/12/25 01:28:05;;;;;;;114.78;17.35;;;6.10;99.90;;;;;;5013030;28;20026;-72
2022/12/25 01:30:31;;;;;;;92.90;16.98;;;6.10;99.90;;;;;;5012997;28;20026;-72
2022/12/25 01:32:57;;;;;;;88.28;17.63;;;6.10;99.90;;;;;;5013259;28;20034;-71
2022/12/25 01:35:22;;;;;;;107.28;17.58;;;6.10;99.90;;;;;;5016659;28;20028;-71
2022/12/25 01:37:50;;;;;;;113.95;21.83;;;6.10;99.90;;;;;;5016495;28;20022;-72
2022/12/25 01:40:15;;;;;;;82.30;15.95;;;6.10;99.90;;;;;;5016857;28;20469;-72
2022/12/25 01:42:41;;;;;;;76.65;15.23;;;6.10;99.90;;;;;;5016362;28;20036;-72
2022/12/25 01:45:29;;;;;;;80.63;16.67;;;6.10;99.90;;;;;;5016396;28;20026;-72
2022/12/25 01:47:55;;;;;;;77.88;16.27;;;6.10;99.90;;;;;;5015100;28;20048;-72
2022/12/25 01:50:21;;;;;;;81.82;16.60;;;6.10;99.90;;;;;;5016425;28;20050;-72
2022/12/25 01:52:47;;;;;;;111.13;17.67;;;6.20;99.90;;;;;;5016418;28;20026;-71
2022/12/25 01:55:13;;;;;;;109.45;17.05;;;6.10;99.90;;;;;;5016586;28;20108;-72
2022/12/25 01:57:39;;;;;;;98.28;18.25;;;6.10;99.90;;;;;;5016154;28;20057;-72
2022/12/25 02:00:06;;;;;;;101.60;21.45;;;6.10;99.90;;;;;;5016192;28;20033;-72
2022/12/25 02:02:32;;;;;;;81.30;20.20;;;6.10;99.90;;;;;;5016156;28;20068;-72
2022/12/25 02:05:07;;;;;;;88.20;20.85;;;6.10;99.90;;;;;;5016047;28;20061;-71
2022/12/25 02:07:36;;;;;;;120.68;25.25;;;6.20;99.90;;;;;;5014625;28;20041;-72
2022/12/25 02:10:01;;;;;;;94.65;22.80;;;6.10;99.90;;;;;;5016271;28;20421;-72
2022/12/25 02:12:31;;;;;;;91.75;23.45;;;6.10;99.90;;;;;;5015962;28;20105;-71
2022/12/25 02:15:00;;;;;;;107.22;23.50;;;6.20;99.90;;;;;;5015965;28;20161;-72
2022/12/25 02:17:41;;;;;;;97.47;22.10;;;6.10;99.90;;;;;;5015934;28;20112;-71
2022/12/25 02:20:26;;;;;;;83.43;22.67;;;6.20;99.90;;;;;;5015768;28;20447;-72
2022/12/25 02:23:04;;;;;;;102.38;21.85;;;6.10;99.90;;;;;;5016032;28;20034;-71
2022/12/25 02:25:54;;;;;;;88.07;25.33;;;6.10;99.90;;;;;;5015733;28;20026;-72
2022/12/25 02:29:10;;;;;;;92.68;23.02;;;6.10;99.90;;;;;;5015629;28;20045;-72
2022/12/25 02:31:48;;;;;;;93.63;24.67;;;6.00;99.90;;;;;;4990366;28;20042;-72
2022/12/25 02:34:19;;;;;;;85.20;26.08;;;6.00;99.90;;;;;;5015767;28;20018;-72
2022/12/25 02:37:11;;;;;;;113.00;27.15;;;6.00;99.90;;;;;;5016108;28;20026;-72
2022/12/25 02:40:11;;;;;;;132.50;29.73;;;6.00;99.90;;;;;;5015652;28;20026;-72
2022/12/25 03:08:33;;;;;;;133.25;31.40;;;5.80;99.90;;;;;;5015260;28;20085;-71
2022/12/25 03:13:51;;;;;;;138.52;31.17;;;5.80;99.90;;;;;;5015461;28;20037;-71
2022/12/25 03:26:53;;;;;;;122.88;30.17;;;5.80;99.90;;;;;;5014893;28;20080;-72
2022/12/25 03:27:18;;;;;;;109.03;29.73;;;5.70;99.90;;;;;;4993821;28;20000;-71
2022/12/25 03:32:43;;;;;;;188.55;35.70;;;5.60;99.90;;;;;;5014808;28;20393;-71
2022/12/25 03:35:24;;;;;;;140.00;33.83;;;5.60;99.90;;;;;;5014806;28;20022;-71
2022/12/25 03:39:01;;;;;;;126.43;32.42;;;5.60;99.90;;;;;;5014736;28;20025;-71
2022/12/25 03:45:41;;;;;;;141.57;32.85;;;5.50;99.90;;;;;;5014796;28;20056;-71
2022/12/25 04:37:35;;;;;;;139.57;25.50;;;5.20;99.90;;;;;;5013824;28;20496;-71
2022/12/25 04:40:00;;;;;;;63.75;22.63;;;5.20;99.90;;;;;;5013730;28;20034;-71
2022/12/25 04:42:26;;;;;;;78.13;22.75;;;5.20;99.90;;;;;;5013408;28;20033;-72
2022/12/25 04:44:51;;;;;;;107.97;25.08;;;5.20;99.90;;;;;;5013641;28;20026;-72
2022/12/25 04:47:17;;;;;;;99.50;27.38;;;5.20;99.90;;;;;;5013399;28;20018;-71
2022/12/25 04:49:42;;;;;;;100.47;26.13;;;5.30;99.90;;;;;;5013370;28;20064;-72
2022/12/25 04:52:08;;;;;;;83.93;25.45;;;5.30;99.90;;;;;;5013349;28;20057;-71
2022/12/25 04:54:33;;;;;;;146.00;28.33;;;5.20;99.90;;;;;;5013283;28;20026;-72
2022/12/25 04:56:59;;;;;;;95.05;28.23;;;5.30;99.90;;;;;;5013294;28;20030;-72
2022/12/25 04:59:24;;;;;;;66.18;25.42;;;5.30;99.90;;;;;;5013194;28;20026;-71
2022/12/25 05:01:50;;;;;;;123.32;26.42;;;5.30;99.90;;;;;;5013285;28;20161;-71
2022/12/25 05:04:15;;;;;;;90.28;25.35;;;5.30;99.90;;;;;;5013055;28;20045;-72
2022/12/25 05:06:41;;;;;;;131.48;28.35;;;5.30;99.90;;;;;;5013236;28;20041;-71
2022/12/25 05:09:07;;;;;;;140.27;25.67;;;5.30;99.90;;;;;;5016969;28;20072;-72
2022/12/25 05:11:32;;;;;;;143.10;25.77;;;5.30;99.90;;;;;;5017177;28;20432;-71
2022/12/25 05:13:58;;;;;;;144.75;27.77;;;5.40;99.90;;;;;;5017381;28;20429;-71
2022/12/25 05:16:25;;;;;;;87.10;23.00;;;5.40;99.90;;;;;;5017040;28;20084;-71
2022/12/25 05:18:50;;;;;;;136.60;26.45;;;5.50;99.90;;;;;;5016914;28;20068;-72
2022/12/25 05:21:16;;;;;;;165.15;28.60;;;5.40;99.90;;;;;;5016880;28;20034;-72
2022/12/25 05:23:47;;;;;;;123.05;26.05;;;5.50;99.90;;;;;;5016926;28;20444;-71
2022/12/25 05:26:17;;;;;;;182.05;28.30;;;5.50;99.90;;;;;;5017004;28;20113;-71
2022/12/25 05:28:43;;;;;;;134.50;27.15;;;5.50;99.90;;;;;;5016969;28;20032;-72
2022/12/25 05:31:08;;;;;;;164.10;27.70;;;5.50;99.90;;;;;;5017102;28;20030;-71
2022/12/25 05:33:34;;;;;;;137.88;28.52;;;5.50;99.90;;;;;;5016642;28;20155;-72
2022/12/25 05:36:04;;;;;;;228.30;32.88;;;5.50;99.90;;;;;;5016684;28;20053;-72
2022/12/25 05:38:29;;;;;;;153.88;31.27;;;5.50;99.90;;;;;;5016565;28;20474;-73
2022/12/25 05:40:55;;;;;;;145.07;31.08;;;5.50;99.90;;;;;;5016595;28;20057;-71
2022/12/25 05:43:20;;;;;;;138.70;34.40;;;5.50;99.90;;;;;;5017600;28;20037;-71
2022/12/25 05:45:46;;;;;;;128.70;33.15;;;5.50;99.90;;;;;;5016482;28;20022;-72
2022/12/25 05:48:11;;;;;;;136.80;35.97;;;5.60;99.90;;;;;;5016467;28;20036;-71
2022/12/25 05:50:37;;;;;;;119.05;35.42;;;5.60;99.90;;;;;;5016338;28;20029;-72
2022/12/25 05:53:04;;;;;;;199.88;39.15;;;5.70;99.90;;;;;;5016661;28;20022;-71
2022/12/25 05:55:33;;;;;;;194.90;42.92;;;5.70;99.90;;;;;;5016191;28;20482;-72
2022/12/25 05:57:59;;;;;;;258.77;46.72;;;5.70;99.90;;;;;;5016340;28;20036;-71
2022/12/25 06:00:25;;;;;;;220.82;42.85;;;5.80;99.90;;;;;;5016293;28;20113;-72
2022/12/25 06:02:50;;;;;;;233.25;44.90;;;5.80;99.90;;;;;;5016779;28;20060;-71
2022/12/25 06:05:16;;;;;;;220.10;45.38;;;5.80;99.90;;;;;;5016072;28;20477;-72
2022/12/25 06:07:41;;;;;;;210.73;45.20;;;5.90;99.90;;;;;;5015969;28;20045;-72
2022/12/25 06:10:07;;;;;;;160.50;40.83;;;5.90;99.90;;;;;;5015993;28;20036;-72
2022/12/25 06:12:33;;;;;;;166.27;43.67;;;6.00;99.90;;;;;;5014764;28;20026;-71
2022/12/25 06:14:58;;;;;;;218.63;48.22;;;6.00;99.90;;;;;;5016005;28;20025;-71
2022/12/25 06:17:25;;;;;;;206.88;45.85;;;6.00;99.90;;;;;;5016160;28;20026;-72
2022/12/25 06:19:51;;;;;;;200.25;45.22;;;6.00;99.90;;;;;;5014993;28;20171;-72
2022/12/25 06:22:17;;;;;;;183.00;44.38;;;6.10;99.90;;;;;;5015840;28;20081;-72
2022/12/25 06:24:42;;;;;;;205.50;45.80;;;6.10;99.90;;;;;;5016252;28;20030;-71
2022/12/25 06:27:08;;;;;;;249.27;51.00;;;6.10;99.90;;;;;;5015735;28;20026;-72
2022/12/25 06:29:33;;;;;;;241.52;53.65;;;6.10;99.90;;;;;;5015604;28;20029;-72
2022/12/25 06:31:59;;;;;;;247.00;52.13;;;6.20;99.90;;;;;;5015692;28;20486;-71
2022/12/25 06:34:25;;;;;;;261.48;56.47;;;6.20;99.90;;;;;;5015892;28;20117;-71
2022/12/25 06:36:51;;;;;;;245.55;54.45;;;6.20;99.90;;;;;;5015883;28;20022;-71
2022/12/25 06:39:17;;;;;;;244.10;59.92;;;6.30;99.90;;;;;;5015522;28;20028;-72
2022/12/25 06:41:42;;;;;;;251.90;57.15;;;6.30;99.90;;;;;;5015525;28;20062;-71
2022/12/25 06:44:08;;;;;;;247.75;58.85;;;6.40;99.90;;;;;;5015366;28;20136;-71
2022/12/25 06:46:33;;;;;;;279.80;59.20;;;6.40;99.90;;;;;;5015598;28;20366;-72
2022/12/25 06:49:00;;;;;;;299.92;64.32;;;6.40;99.90;;;;;;5015555;28;20022;-72
2022/12/25 06:51:28;;;;;;;289.98;62.92;;;6.40;99.90;;;;;;5015332;28;20504;-71
2022/12/25 06:53:54;;;;;;;279.98;62.95;;;6.50;99.90;;;;;;5015573;28;20030;-71
2022/12/25 06:56:23;;;;;;;323.77;65.13;;;6.40;99.90;;;;;;5015309;28;20036;-72
2022/12/25 06:58:51;;;;;;;319.23;68.25;;;6.50;99.90;;;;;;5015682;28;20493;-71
2022/12/25 07:01:29;;;;;;;292.45;67.00;;;6.50;99.90;;;;;;5015075;28;20537;-71
2022/12/25 07:03:58;;;;;;;255.60;62.45;;;6.50;99.90;;;;;;5015267;28;20022;-72
2022/12/25 07:06:30;;;;;;;275.40;65.38;;;6.50;99.90;;;;;;5015251;28;20393;-71
2022/12/25 07:08:56;;;;;;;329.45;68.60;;;6.50;99.90;;;;;;5014864;28;20021;-72
2022/12/25 07:11:22;;;;;;;310.30;67.03;;;6.60;99.90;;;;;;5014887;28;20026;-71
2022/12/25 07:13:47;;;;;;;256.50;65.38;;;6.60;99.90;;;;;;5014886;28;20026;-72
2022/12/25 07:16:13;;;;;;;303.88;67.53;;;6.60;99.90;;;;;;5015378;28;20048;-71
2022/12/25 07:18:39;;;;;;;276.55;65.60;;;6.60;99.90;;;;;;5014977;28;20041;-72
2022/12/25 07:21:10;;;;;;;268.48;69.10;;;6.60;99.90;;;;;;5015020;28;20508;-71
2022/12/25 07:23:36;;;;;;;302.65;70.50;;;6.60;99.90;;;;;;5014715;28;20057;-71
2022/12/25 07:26:02;;;;;;;310.48;71.28;;;6.50;99.90;;;;;;5014560;28;20057;-72
2022/12/25 07:28:29;;;;;;;306.77;69.18;;;6.60;99.90;;;;;;5014804;28;20474;-72
2022/12/25 07:30:59;;;;;;;334.02;72.13;;;6.60;99.90;;;;;;5013849;28;20022;-71
2022/12/25 07:33:24;;;;;;;306.67;69.40;;;6.60;99.90;;;;;;5014840;28;20049;-71
2022/12/25 07:35:50;;;;;;;314.52;69.60;;;6.50;99.90;;;;;;5014485;28;20057;-71
2022/12/25 07:38:15;;;;;;;284.65;71.40;;;6.50;99.90;;;;;;5014897;28;20022;-72
2022/12/25 07:40:45;;;;;;;288.65;67.15;;;6.60;99.90;;;;;;5014309;28;20030;-71
2022/12/25 07:43:10;;;;;;;290.27;69.57;;;6.50;99.90;;;;;;5014615;28;20077;-71
2022/12/25 07:45:36;;;;;;;271.23;68.47;;;6.60;99.90;;;;;;5014520;28;20385;-71
2022/12/25 07:48:01;;;;;;;253.88;63.42;;;6.50;99.90;;;;;;5014437;28;20034;-72
2022/12/25 07:50:27;;;;;;;273.95;68.70;;;6.60;99.90;;;;;;5014332;28;20026;-71
2022/12/25 07:52:54;;;;;;;296.77;77.38;;;6.60;99.90;;;;;;5012679;28;20044;-73
2022/12/25 07:55:19;;;;;;;346.73;79.80;;;6.60;99.90;;;;;;5011758;28;20057;-72
2022/12/25 07:57:45;;;;;;;309.83;78.95;;;6.60;99.90;;;;;;4999848;28;20058;-72
2022/12/25 08:00:11;;;;;;;310.77;81.25;;;6.60;99.90;;;;;;4994929;28;20113;-71
2022/12/25 08:02:36;;;;;;;307.85;80.57;;;6.60;99.90;;;;;;4994413;28;20034;-72
2022/12/25 08:05:02;;;;;;;325.48;76.57;;;6.60;99.90;;;;;;4994311;28;20141;-71
2022/12/25 08:07:27;;;;;;;355.88;84.90;;;6.60;99.90;;;;;;4994506;28;20022;-72
2022/12/25 08:09:53;;;;;;;295.77;76.57;;;6.60;99.90;;;;;;4994198;28;20014;-72
2022/12/25 08:12:18;;;;;;;303.73;80.53;;;6.60;99.90;;;;;;4994470;28;20018;-72
2022/12/25 08:14:44;;;;;;;322.75;81.72;;;6.60;99.90;;;;;;4994709;28;20101;-71
2022/12/25 08:17:09;;;;;;;294.95;80.78;;;6.60;99.90;;;;;;4994149;28;20076;-71
2022/12/25 08:19:35;;;;;;;303.38;77.32;;;6.60;99.90;;;;;;4994050;28;20114;-72
2022/12/25 08:22:00;;;;;;;358.83;88.68;;;6.60;99.90;;;;;;4994070;28;20026;-72
2022/12/25 08:24:26;;;;;;;349.15;86.07;;;6.60;99.90;;;;;;4993644;28;20053;-72
2022/12/25 08:26:51;;;;;;;289.17;81.82;;;6.60;99.90;;;;;;4993920;28;20116;-71
2022/12/25 08:29:17;;;;;;;336.73;81.13;;;6.60;99.90;;;;;;5000693;28;20026;-72
2022/12/25 08:31:43;;;;;;;333.92;83.20;;;6.60;99.90;;;;;;5013312;28;20018;-72
2022/12/25 08:34:09;;;;;;;332.38;79.32;;;6.60;99.90;;;;;;5013095;28;20025;-72
2022/12/25 08:36:35;;;;;;;329.75;81.00;;;6.60;99.90;;;;;;5013246;28;20022;-71
2022/12/25 08:39:01;;;;;;;394.77;91.88;;;6.70;99.90;;;;;;5013379;28;20030;-71
2022/12/25 08:41:27;;;;;;;297.90;77.78;;;6.60;99.90;;;;;;5013701;28;20076;-71
2022/12/25 08:43:52;;;;;;;331.38;85.43;;;6.70;99.90;;;;;;5008030;28;20052;-73
2022/12/25 08:46:18;;;;;;;301.42;78.38;;;6.70;99.90;;;;;;5000562;28;20084;-72
2022/12/25 08:48:45;;;;;;;328.00;80.70;;;6.60;99.90;;;;;;4998950;28;20022;-73
2022/12/25 08:51:13;;;;;;;305.58;76.90;;;6.60;99.90;;;;;;5003460;28;20030;-72
2022/12/25 08:53:40;;;;;;;332.05;81.55;;;6.70;99.90;;;;;;5005151;28;20018;-73
2022/12/25 08:56:06;;;;;;;312.60;77.68;;;6.70;99.90;;;;;;4997855;28;20080;-72
2022/12/25 08:58:32;;;;;;;304.58;76.68;;;6.70;99.90;;;;;;4998129;28;20105;-73
2022/12/25 09:00:58;;;;;;;283.15;75.13;;;6.70;99.90;;;;;;4996642;28;20030;-72
2022/12/25 09:03:24;;;;;;;292.48;76.82;;;6.70;99.90;;;;;;5000905;28;20504;-72
2022/12/25 09:05:51;;;;;;;281.30;75.15;;;6.70;99.90;;;;;;4997555;28;20027;-72
2022/12/25 09:08:17;;;;;;;261.75;71.00;;;6.80;99.90;;;;;;4999981;28;20027;-72
2022/12/25 09:10:43;;;;;;;271.77;69.50;;;6.80;99.90;;;;;;5001542;28;20401;-72
2022/12/25 09:13:08;;;;;;;218.63;70.43;;;6.80;99.90;;;;;;5006498;28;20022;-72
2022/12/25 09:15:36;;;;;;;233.75;65.65;;;6.80;99.90;;;;;;5012635;28;20030;-72
2022/12/25 09:18:01;;;;;;;260.33;66.15;;;6.80;99.90;;;;;;5013072;28;20041;-72
2022/12/25 09:20:27;;;;;;;237.55;66.05;;;6.80;99.90;;;;;;5012697;28;20494;-72
2022/12/25 09:22:52;;;;;;;229.60;67.25;;;6.80;99.90;;;;;;5012894;28;20056;-72
2022/12/25 09:25:18;;;;;;;257.70;71.35;;;6.80;99.90;;;;;;5012805;28;20030;-72
2022/12/25 09:27:43;;;;;;;233.77;68.78;;;6.80;99.90;;;;;;5013102;28;20018;-72
2022/12/25 09:30:09;;;;;;;270.17;69.03;;;6.80;99.90;;;;;;5012603;28;20382;-72
2022/12/25 09:32:35;;;;;;;278.33;72.80;;;6.90;99.90;;;;;;5012806;28;20025;-72
2022/12/25 09:35:00;;;;;;;245.32;69.97;;;6.90;99.90;;;;;;5012630;28;20109;-72
2022/12/25 09:37:27;;;;;;;270.60;71.38;;;6.80;99.90;;;;;;5012694;28;20033;-72
2022/12/25 09:39:53;;;;;;;255.82;71.35;;;6.80;99.90;;;;;;5012535;28;20101;-72
2022/12/25 09:42:23;;;;;;;260.40;71.72;;;6.90;99.90;;;;;;5012736;28;20109;-72
2022/12/25 09:44:59;;;;;;;291.48;74.75;;;6.90;99.90;;;;;;5012664;28;20401;-72
2022/12/25 09:47:28;;;;;;;263.80;71.72;;;6.90;99.90;;;;;;5012753;28;20022;-72
2022/12/25 09:50:10;;;;;;;270.95;71.25;;;6.90;99.90;;;;;;5012587;28;20022;-72
2022/12/25 09:52:45;;;;;;;241.85;71.20;;;6.90;99.90;;;;;;5013402;28;20018;-71
2022/12/25 09:55:25;;;;;;;263.30;70.53;;;6.90;99.90;;;;;;5014935;28;20145;-72
2022/12/25 09:57:55;;;;;;;280.60;71.97;;;6.90;99.90;;;;;;5016578;28;20176;-72
2022/12/25 10:00:24;;;;;;;264.80;71.05;;;6.90;99.90;;;;;;5016293;28;20053;-72
2022/12/25 10:02:58;;;;;;;253.75;70.28;;;6.90;99.90;;;;;;5016515;28;20030;-71
2022/12/25 10:05:30;;;;;;;220.98;68.15;;;6.90;99.90;;;;;;5016084;28;20053;-72
2022/12/25 10:08:03;;;;;;;239.18;71.03;;;6.90;99.90;;;;;;5016398;28;20033;-71
2022/12/25 10:10:47;;;;;;;262.02;71.63;;;6.90;99.90;;;;;;5016073;28;20033;-72
2022/12/25 10:13:35;;;;;;;269.85;70.15;;;6.90;99.90;;;;;;5016206;28;20021;-72
2022/12/25 10:16:09;;;;;;;250.98;70.65;;;6.90;99.90;;;;;;5016283;28;20021;-72
2022/12/25 10:18:44;;;;;;;234.00;65.22;;;6.90;99.90;;;;;;5015852;28;20061;-71
2022/12/25 10:21:14;;;;;;;236.80;69.55;;;7.00;99.90;;;;;;5016198;28;20038;-72
2022/12/25 10:24:04;;;;;;;262.02;69.85;;;7.00;99.90;;;;;;5015923;28;20485;-71
2022/12/25 10:26:32;;;;;;;250.27;66.80;;;7.00;99.90;;;;;;5015945;28;20030;-72
2022/12/25 10:29:21;;;;;;;242.25;66.13;;;7.00;99.90;;;;;;5016056;28;20030;-71
2022/12/25 10:31:49;;;;;;;218.82;65.53;;;7.00;99.90;;;;;;5015219;28;20029;-72
2022/12/25 10:34:15;;;;;;;221.05;65.32;;;7.00;99.90;;;;;;5015715;28;20038;-71
2022/12/25 10:36:44;;;;;;;203.48;62.05;;;7.10;99.90;;;;;;5015900;28;20033;-71
2022/12/25 10:39:19;;;;;;;216.80;63.72;;;7.10;99.90;;;;;;5015608;28;20030;-72
2022/12/25 10:41:55;;;;;;;216.70;60.60;;;7.10;99.90;;;;;;5015975;28;20018;-72
2022/12/25 10:44:25;;;;;;;197.10;60.35;;;7.10;99.90;;;;;;5015878;28;20030;-72
2022/12/25 10:46:54;;;;;;;213.25;61.95;;;7.10;99.90;;;;;;5015406;28;20572;-72
2022/12/25 10:49:22;;;;;;;177.07;59.40;;;7.10;99.90;;;;;;5015387;28;20450;-72
2022/12/25 10:51:48;;;;;;;195.85;58.80;;;7.10;99.90;;;;;;5015633;28;20029;-71
2022/12/25 10:54:22;;;;;;;204.60;59.47;;;7.10;99.90;;;;;;5015093;28;20030;-73
2022/12/25 10:56:57;;;;;;;195.18;58.05;;;7.20;99.90;;;;;;5015181;28;20100;-72
2022/12/25 10:59:27;;;;;;;193.60;57.47;;;7.20;99.90;;;;;;5013865;28;20053;-71
2022/12/25 11:01:54;;;;;;;150.77;51.42;;;7.20;99.90;;;;;;5015465;28;20029;-71
2022/12/25 11:04:24;;;;;;;187.88;58.22;;;7.20;99.90;;;;;;5015032;28;20470;-71
2022/12/25 11:07:12;;;;;;;186.32;52.60;;;7.20;99.90;;;;;;5014761;28;20053;-72
2022/12/25 11:09:38;;;;;;;179.48;55.88;;;7.20;99.90;;;;;;5015181;28;20025;-71
2022/12/25 11:12:04;;;;;;;197.55;54.47;;;7.20;99.90;;;;;;5015087;28;20092;-72
2022/12/25 11:14:30;;;;;;;202.38;53.05;;;7.30;99.90;;;;;;5014866;28;20117;-72
2022/12/25 11:17:07;;;;;;;182.30;52.55;;;7.30;99.90;;;;;;5013559;28;20116;-72
2022/12/25 11:19:32;;;;;;;182.88;54.45;;;7.30;99.90;;;;;;5014566;28;20038;-72
2022/12/25 11:22:00;;;;;;;172.38;52.63;;;7.30;99.90;;;;;;5014820;28;20033;-71
2022/12/25 11:24:28;;;;;;;167.23;52.15;;;7.30;99.90;;;;;;5014636;28;20022;-72
2022/12/25 11:26:57;;;;;;;160.52;51.08;;;7.30;99.90;;;;;;5014425;28;20014;-71
2022/12/25 11:29:42;;;;;;;180.55;49.97;;;7.30;99.90;;;;;;5014610;28;20018;-71
2022/12/25 11:32:29;;;;;;;175.13;51.53;;;7.40;99.90;;;;;;5014957;28;20049;-71
2022/12/25 11:34:55;;;;;;;161.43;47.97;;;7.30;99.90;;;;;;5013149;28;20036;-71
2022/12/25 11:37:29;;;;;;;183.43;54.58;;;7.30;99.90;;;;;;5014149;28;20500;-71
2022/12/25 11:39:55;;;;;;;188.02;54.20;;;7.40;99.90;;;;;;5014435;28;20029;-71
2022/12/25 11:42:31;;;;;;;175.90;50.55;;;7.30;99.90;;;;;;5014390;28;20109;-71
2022/12/25 11:45:14;;;;;;;174.20;51.83;;;7.30;99.90;;;;;;5012981;28;20477;-72
2022/12/25 11:48:14;;;;;;;181.95;49.15;;;7.30;99.90;;;;;;5014949;28;20029;-72
2022/12/25 11:50:44;;;;;;;191.60;47.88;;;7.30;99.90;;;;;;4999330;28;20577;-72
2022/12/25 11:53:18;;;;;;;173.85;51.97;;;7.30;99.90;;;;;;5014800;28;20022;-71
2022/12/25 11:55:53;;;;;;;171.05;49.42;;;7.30;99.90;;;;;;5014521;28;20030;-72
2022/12/25 11:58:42;;;;;;;178.35;49.13;;;7.40;99.90;;;;;;5014473;28;20053;-71
2022/12/25 12:01:16;;;;;;;169.00;49.00;;;7.40;99.90;;;;;;5014185;28;20036;-72
2022/12/25 12:03:42;;;;;;;;;;;7.40;99.90;;;;;;5014454;28;20113;-72
2022/12/25 12:06:35;;;;;;;168.35;46.88;;;7.40;99.90;;;;;;5013904;28;19909;-72
2022/12/25 12:09:17;;;;;;;172.07;46.15;;;7.40;99.90;;;;;;5013989;28;20030;-72
2022/12/25 12:11:52;;;;;;;181.15;50.72;;;7.40;99.90;;;;;;5014149;28;20030;-72
2022/12/25 12:14:42;;;;;;;154.50;47.70;;;7.40;99.90;;;;;;5014150;28;20044;-72
2022/12/25 12:17:15;;;;;;;168.32;49.83;;;7.40;99.90;;;;;;5013325;28;20497;-72
2022/12/25 12:19:41;;;;;;;;;;;7.40;99.90;;;;;;5013955;28;20049;-72
2022/12/25 12:22:20;;;;;;;173.65;48.63;;;7.40;99.90;;;;;;5014003;28;19909;-72
2022/12/25 12:25:00;;;;;;;175.52;47.95;;;7.50;99.90;;;;;;5013676;28;20022;-72
2022/12/25 12:27:30;;;;;;;170.88;48.40;;;7.50;99.90;;;;;;5014018;28;20022;-71
2022/12/25 12:29:58;;;;;;;204.73;50.40;;;7.50;99.90;;;;;;5013276;28;20033;-72
2022/12/25 12:32:33;;;;;;;171.95;48.85;;;7.50;99.90;;;;;;5013417;28;20030;-72
2022/12/25 12:35:04;;;;;;;168.02;47.28;;;7.50;99.90;;;;;;5013853;28;20030;-72
2022/12/25 12:37:34;;;;;;;145.45;44.10;;;7.50;99.90;;;;;;5012303;28;20474;-71
2022/12/25 12:40:01;;;;;;;128.30;46.45;;;7.50;99.90;;;;;;5013419;28;20504;-72
2022/12/25 12:42:43;;;;;;;128.25;42.78;;;7.60;99.90;;;;;;5013466;28;20030;-72
2022/12/25 12:45:16;;;;;;;141.82;45.00;;;7.60;99.90;;;;;;5013619;28;20034;-72
2022/12/25 12:47:45;;;;;;;131.57;45.10;;;7.60;99.90;;;;;;5012973;28;20037;-72
2022/12/25 12:50:31;;;;;;;159.05;44.55;;;7.60;99.90;;;;;;5013412;28;20113;-72
2022/12/25 12:52:57;;;;;;;142.18;45.92;;;7.60;99.90;;;;;;5013376;28;20018;-72
2022/12/25 12:55:33;;;;;;;149.68;44.88;;;7.50;99.90;;;;;;5013579;28;20026;-72
2022/12/25 12:58:01;;;;;;;156.75;44.58;;;7.50;99.90;;;;;;5013416;28;20018;-72
2022/12/25 13:00:43;;;;;;;118.65;43.17;;;7.50;99.90;;;;;;5013247;28;20068;-72
2022/12/25 13:03:27;;;;;;;124.03;41.35;;;7.60;99.90;;;;;;5013294;28;20030;-72
2022/12/25 13:06:16;;;;;;;132.00;42.63;;;7.60;99.90;;;;;;5013492;28;20084;-71
2022/12/25 13:09:00;;;;;;;134.02;43.45;;;7.50;99.90;;;;;;5013574;28;20034;-72
2022/12/25 13:11:33;;;;;;;124.65;43.53;;;7.50;99.90;;;;;;5013153;28;20018;-72
2022/12/25 13:14:00;;;;;;;;;;;7.50;99.90;;;;;;5013951;28;20041;-71
2022/12/25 13:16:41;;;;;;;125.47;42.05;;;7.50;99.90;;;;;;5013414;28;19906;-72
2022/12/25 13:19:12;;;;;;;119.70;40.60;;;7.50;99.90;;;;;;5013160;28;20506;-72
2022/12/25 13:21:37;;;;;;;153.98;44.83;;;7.40;99.90;;;;;;5013478;28;20041;-71
2022/12/25 13:24:07;;;;;;;139.52;44.33;;;7.40;99.90;;;;;;5013120;28;20026;-72
2022/12/25 13:26:34;;;;;;;125.38;43.83;;;7.40;99.90;;;;;;5013607;28;20498;-72
2022/12/25 13:28:59;;;;;;;145.05;45.05;;;7.50;99.90;;;;;;5013363;28;20478;-71
2022/12/25 13:31:28;;;;;;;161.35;45.33;;;7.40;99.90;;;;;;5016919;28;20032;-72
2022/12/25 13:33:59;;;;;;;143.18;46.45;;;7.40;99.90;;;;;;5016772;28;20037;-72
2022/12/25 13:36:28;;;;;;;138.65;44.65;;;7.40;99.90;;;;;;5016986;28;20034;-72
2022/12/25 13:38:56;;;;;;;115.28;41.33;;;7.40;99.90;;;;;;5016574;28;20034;-72
2022/12/25 13:44:20;;;;;;;128.25;42.58;;;7.50;99.90;;;;;;5016617;28;20068;-72
2022/12/25 13:46:46;;;;;;;119.05;42.65;;;7.40;99.90;;;;;;5017024;28;20389;-72
2022/12/25 13:49:18;;;;;;;106.40;42.72;;;7.50;99.90;;;;;;5016460;28;20022;-72
2022/12/25 13:51:44;;;;;;;114.38;44.47;;;7.50;99.90;;;;;;5016763;28;20030;-72
2022/12/25 13:54:12;;;;;;;123.28;44.28;;;7.50;99.90;;;;;;5016603;28;20037;-72
2022/12/25 13:56:52;;;;;;;115.55;42.75;;;7.50;99.90;;;;;;5016637;28;20030;-72
2022/12/25 13:59:22;;;;;;;102.32;41.95;;;7.50;99.90;;;;;;5016411;28;20026;-73
2022/12/25 14:01:48;;;;;;;105.68;40.90;;;7.50;99.90;;;;;;5016534;28;20037;-72
2022/12/25 14:04:18;;;;;;;105.28;40.42;;;7.50;99.90;;;;;;5016216;28;20030;-71
2022/12/25 14:06:44;;;;;;;118.07;44.08;;;7.60;99.90;;;;;;5016119;28;20037;-72
2022/12/25 14:09:11;;;;;;;126.93;45.03;;;7.60;99.90;;;;;;5016310;28;20389;-72
2022/12/25 14:11:40;;;;;;;130.98;46.58;;;7.50;99.90;;;;;;5016344;28;20018;-72
2022/12/25 14:14:21;;;;;;;129.95;47.17;;;7.50;99.90;;;;;;5016271;28;20022;-72
2022/12/25 14:16:49;;;;;;;122.70;46.40;;;7.60;99.90;;;;;;5015965;28;20022;-72
2022/12/25 14:19:26;;;;;;;122.07;46.45;;;7.50;99.90;;;;;;5015777;28;20408;-72